createdAt,value
2023-03-03T00:02:03.385Z,88.48
2023-03-03T00:04:31.679Z,88.21
2023-03-03T00:07:00.504Z,87.85
2023-03-03T00:09:28.536Z,87.63
2023-03-03T00:11:58.973Z,88.29
2023-03-03T00:14:30.934Z,88.37
2023-03-03T00:17:04.543Z,88.84
2023-03-03T00:19:39.180Z,89.18
2023-03-03T00:22:18.626Z,89.19
2023-03-03T00:24:47.498Z,89.24
2023-03-03T00:27:24.458Z,89.34
2023-03-03T00:29:56.847Z,89.18
2023-03-03T00:32:28.031Z,89.05
2023-03-03T00:34:57.634Z,89.24
2023-03-03T00:37:31.602Z,89.54
2023-03-03T00:40:14.633Z,89.40
2023-03-03T00:42:43.226Z,89.31
2023-03-03T00:45:27.331Z,89.59
2023-03-03T00:47:57.358Z,89.68
2023-03-03T00:50:34.776Z,90.54
2023-03-03T00:53:05.868Z,90.85
2023-03-03T00:55:35.113Z,91.01
2023-03-03T00:58:03.469Z,91.21
2023-03-03T01:00:37.419Z,91.21
2023-03-03T01:03:11.432Z,91.20
2023-03-03T01:05:39.797Z,91.09
2023-03-03T01:08:08.531Z,90.79
2023-03-03T01:10:41.236Z,90.13
2023-03-03T01:13:10.238Z,90.32
2023-03-03T01:15:40.855Z,90.36
2023-03-03T01:18:10.817Z,90.43
2023-03-03T01:20:39.295Z,90.40
2023-03-03T01:23:07.808Z,90.07
2023-03-03T01:25:36.122Z,90.73
2023-03-03T01:28:04.867Z,91.44
2023-03-03T01:30:33.418Z,91.61
2023-03-03T01:33:01.810Z,91.62
2023-03-03T01:35:31.283Z,91.68
2023-03-03T01:38:00.112Z,91.15
2023-03-03T01:40:31.875Z,91.30
2023-03-03T01:43:01.030Z,91.28
2023-03-03T01:45:31.222Z,91.40
2023-03-03T01:48:03.087Z,91.29
2023-03-03T01:50:42.813Z,91.18
2023-03-03T01:53:16.713Z,91.37
2023-03-03T01:55:46.799Z,91.41
2023-03-03T01:58:18.290Z,91.33
2023-03-03T02:00:51.666Z,90.99
2023-03-03T02:03:23.441Z,90.89
2023-03-03T02:05:56.932Z,90.70
2023-03-03T02:08:31.678Z,90.88
2023-03-03T02:11:00.191Z,90.95
2023-03-03T02:13:28.481Z,91.08
2023-03-03T02:15:59.251Z,91.29
2023-03-03T02:18:28.770Z,91.37
2023-03-03T02:21:05.232Z,91.40
2023-03-03T02:23:39.767Z,91.71
2023-03-03T02:26:14.931Z,91.50
2023-03-03T02:28:44.262Z,91.54
2023-03-03T02:31:17.393Z,91.72
2023-03-03T02:33:47.950Z,91.62
2023-03-03T02:36:18.444Z,91.74
2023-03-03T02:38:52.969Z,91.72
2023-03-03T02:41:30.658Z,91.83
2023-03-03T02:44:02.988Z,91.87
2023-03-03T02:46:35.700Z,91.72
2023-03-03T02:49:04.843Z,91.77
2023-03-03T02:51:33.920Z,91.93
2023-03-03T02:54:02.220Z,92.18
2023-03-03T02:56:34.995Z,92.15
2023-03-03T02:59:03.093Z,92.19
2023-03-03T03:01:37.249Z,92.24
2023-03-03T03:04:11.310Z,92.55
2023-03-03T03:06:44.178Z,92.64
2023-03-03T03:09:14.541Z,92.72
2023-03-03T03:11:45.229Z,92.94
2023-03-03T03:14:16.079Z,92.95
2023-03-03T03:16:45.234Z,92.75
2023-03-03T03:19:13.405Z,92.94
2023-03-03T03:21:42.086Z,93.04
2023-03-03T03:24:11.768Z,92.85
2023-03-03T03:26:46.355Z,92.94
2023-03-03T03:29:15.700Z,92.98
2023-03-03T03:31:45.004Z,93.04
2023-03-03T03:34:13.268Z,92.73
2023-03-03T03:36:41.605Z,92.77
2023-03-03T03:39:10.437Z,92.64
2023-03-03T03:41:43.275Z,92.49
2023-03-03T03:44:13.079Z,92.58
2023-03-03T03:46:41.251Z,92.64
2023-03-03T03:49:09.593Z,92.45
2023-03-03T03:51:41.338Z,92.45
2023-03-03T03:54:11.372Z,92.55
2023-03-03T03:56:40.401Z,92.85
2023-03-03T03:59:09.438Z,92.88
2023-03-03T04:01:40.234Z,93.08
2023-03-03T04:04:08.252Z,92.94
2023-03-03T04:06:36.559Z,92.99
2023-03-03T04:09:06.929Z,92.92
2023-03-03T04:11:35.171Z,92.86
2023-03-03T04:14:05.827Z,92.94
2023-03-03T04:16:35.381Z,93.08
2023-03-03T04:19:05.804Z,93.05
2023-03-03T04:21:36.443Z,93.22
2023-03-03T04:24:04.619Z,93.20
2023-03-03T04:26:33.503Z,93.08
2023-03-03T04:29:04.022Z,93.05
2023-03-03T04:31:32.660Z,92.95
2023-03-03T04:34:01.954Z,92.99
2023-03-03T04:36:32.735Z,93.19
2023-03-03T04:39:01.414Z,93.17
2023-03-03T04:41:29.535Z,93.20
2023-03-03T04:43:57.804Z,93.27
2023-03-03T04:46:26.065Z,93.35
2023-03-03T04:48:55.503Z,93.47
2023-03-03T04:51:24.372Z,93.63
2023-03-03T04:53:54.309Z,93.82
2023-03-03T04:56:23.106Z,93.80
2023-03-03T04:58:51.502Z,94.05
2023-03-03T05:01:19.775Z,94.09
2023-03-03T05:03:48.483Z,94.16
2023-03-03T05:06:18.803Z,94.12
2023-03-03T05:08:47.168Z,93.97
2023-03-03T05:11:16.953Z,94.12
2023-03-03T05:13:46.085Z,94.02
2023-03-03T05:16:15.599Z,94.12
2023-03-03T05:18:43.685Z,94.24
2023-03-03T05:21:12.151Z,94.20
2023-03-03T05:23:40.384Z,94.35
2023-03-03T05:26:08.482Z,94.42
2023-03-03T05:28:38.108Z,94.43
2023-03-03T05:31:06.477Z,94.36
2023-03-03T05:33:34.725Z,94.48
2023-03-03T05:36:03.412Z,94.46
2023-03-03T05:38:31.405Z,94.53
2023-03-03T05:40:59.684Z,94.43
2023-03-03T05:43:28.418Z,94.52
2023-03-03T05:46:00.961Z,94.47
2023-03-03T05:48:29.334Z,94.59
2023-03-03T05:50:59.783Z,94.49
2023-03-03T05:53:28.158Z,94.58
2023-03-03T05:55:56.921Z,94.18
2023-03-03T05:58:25.683Z,94.04
2023-03-03T06:00:53.874Z,94.12
2023-03-03T06:03:23.517Z,94.00
2023-03-03T06:05:51.933Z,94.00
2023-03-03T06:08:20.283Z,94.06
2023-03-03T06:10:48.837Z,94.10
2023-03-03T06:13:17.707Z,94.12
2023-03-03T06:15:46.090Z,94.17
2023-03-03T06:18:14.401Z,94.22
2023-03-03T06:20:44.202Z,94.18
2023-03-03T06:23:12.930Z,94.11
2023-03-03T06:25:40.923Z,94.04
2023-03-03T06:28:08.941Z,93.86
2023-03-03T06:30:37.041Z,93.86
2023-03-03T06:33:05.211Z,93.86
2023-03-03T06:35:33.257Z,94.00
2023-03-03T06:38:02.803Z,94.08
2023-03-03T06:40:32.085Z,93.92
2023-03-03T06:43:02.439Z,93.70
2023-03-03T06:45:30.672Z,93.69
2023-03-03T06:47:58.828Z,93.58
2023-03-03T06:50:26.940Z,93.56
2023-03-03T06:53:06.577Z,93.49
2023-03-03T06:55:35.213Z,93.34
2023-03-03T06:58:04.378Z,93.38
2023-03-03T07:00:32.664Z,93.27
2023-03-03T07:03:02.824Z,92.96
2023-03-03T07:05:31.167Z,92.83
2023-03-03T07:07:59.519Z,92.92
2023-03-03T07:10:31.462Z,93.10
2023-03-03T07:13:12.133Z,93.08
2023-03-03T07:15:40.212Z,93.44
2023-03-03T07:18:26.767Z,93.44
2023-03-03T07:20:55.036Z,93.44
2023-03-03T07:23:26.526Z,93.35
2023-03-03T07:25:56.571Z,93.20
2023-03-03T07:28:27.192Z,93.12
2023-03-03T07:30:57.360Z,93.19
2023-03-03T07:33:28.354Z,92.96
2023-03-03T07:35:58.504Z,92.99
2023-03-03T07:38:37.196Z,92.81
2023-03-03T07:41:13.698Z,92.41
2023-03-03T07:43:49.585Z,91.96
2023-03-03T07:46:29.191Z,91.60
2023-03-03T07:48:58.750Z,91.30
2023-03-03T07:51:29.306Z,90.75
2023-03-03T07:54:18.962Z,90.96
2023-03-03T07:56:49.034Z,90.65
2023-03-03T07:59:22.374Z,90.65
2023-03-03T08:02:29.584Z,91.01
2023-03-03T08:04:57.732Z,91.19
2023-03-03T08:07:26.156Z,91.71
2023-03-03T08:10:00.211Z,91.98
2023-03-03T08:12:43.063Z,91.84
2023-03-03T08:15:26.288Z,91.40
2023-03-03T08:17:57.120Z,90.83
2023-03-03T08:20:45.056Z,90.66
2023-03-03T08:23:14.294Z,90.70
2023-03-03T08:25:43.803Z,90.99
2023-03-03T08:28:14.168Z,90.65
2023-03-03T08:30:43.650Z,90.73
2023-03-03T08:33:12.151Z,90.68
2023-03-03T08:35:40.424Z,89.76
2023-03-03T08:38:09.495Z,89.83
2023-03-03T08:40:38.228Z,90.13
2023-03-03T08:43:06.838Z,90.04
2023-03-03T08:45:37.276Z,89.08
2023-03-03T08:48:06.390Z,88.46
2023-03-03T08:50:34.809Z,88.46
2023-03-03T08:53:02.992Z,88.19
2023-03-03T08:55:31.803Z,88.96
2023-03-03T08:58:00.284Z,89.03
2023-03-03T09:00:28.965Z,89.03
2023-03-03T09:02:58.881Z,88.46
2023-03-03T09:05:27.885Z,88.35
2023-03-03T09:07:56.690Z,87.50
2023-03-03T09:10:29.492Z,87.24
2023-03-03T09:13:01.274Z,87.02
2023-03-03T09:15:31.007Z,87.18
2023-03-03T09:18:06.956Z,86.46
2023-03-03T09:20:41.149Z,85.84
2023-03-03T09:23:36.643Z,86.39
2023-03-03T09:26:27.018Z,86.95
2023-03-03T09:28:57.673Z,86.32
2023-03-03T09:31:28.832Z,86.00
2023-03-03T09:33:59.505Z,86.17
2023-03-03T09:36:30.455Z,85.80
2023-03-03T09:38:59.714Z,86.55
2023-03-03T09:41:48.533Z,85.98
2023-03-03T09:44:31.773Z,86.11
2023-03-03T09:47:18.096Z,86.19
2023-03-03T09:50:01.429Z,86.49
2023-03-03T09:52:42.507Z,87.10
2023-03-03T09:55:29.620Z,87.20
2023-03-03T09:58:12.849Z,86.47
2023-03-03T10:00:48.937Z,86.38
2023-03-03T10:03:54.252Z,85.69
2023-03-03T10:06:30.354Z,86.10
2023-03-03T10:09:33.297Z,85.79
2023-03-03T10:12:09.207Z,85.79
2023-03-03T10:14:51.880Z,86.19
2023-03-03T10:17:30.792Z,85.86
2023-03-03T10:20:13.240Z,85.62
2023-03-03T10:22:51.832Z,85.43
2023-03-03T10:25:30.686Z,85.85
2023-03-03T10:28:30.504Z,85.07
2023-03-03T10:31:15.503Z,85.63
2023-03-03T10:33:54.560Z,85.45
2023-03-03T10:36:35.831Z,84.84
2023-03-03T10:39:34.979Z,83.28
2023-03-03T10:42:16.816Z,82.07
2023-03-03T10:45:06.693Z,81.86
2023-03-03T10:47:51.774Z,82.42
2023-03-03T10:50:25.187Z,82.26
2023-03-03T10:52:58.965Z,82.01
2023-03-03T10:55:39.543Z,83.43
2023-03-03T10:58:22.618Z,82.97
2023-03-03T11:00:58.452Z,83.77
2023-03-03T11:04:07.708Z,83.96
2023-03-03T11:06:46.659Z,84.60
2023-03-03T11:09:39.210Z,83.78
2023-03-03T11:12:17.478Z,84.29
2023-03-03T11:14:53.047Z,84.70
2023-03-03T11:17:27.890Z,84.68
2023-03-03T11:20:05.071Z,84.46
2023-03-03T11:22:40.828Z,84.75
2023-03-03T11:25:23.757Z,83.50
2023-03-03T11:28:10.787Z,83.50
2023-03-03T11:31:01.453Z,84.30
2023-03-03T11:33:37.769Z,84.72
2023-03-03T11:36:13.461Z,84.34
2023-03-03T11:38:49.600Z,84.58
2023-03-03T11:41:34.271Z,85.37
2023-03-03T11:44:12.301Z,84.87
2023-03-03T11:46:47.820Z,84.68
2023-03-03T11:49:23.599Z,85.13
2023-03-03T11:52:01.790Z,84.75
2023-03-03T11:54:35.461Z,84.92
2023-03-03T11:57:19.946Z,83.89
2023-03-03T12:00:08.500Z,83.56
2023-03-03T12:03:15.588Z,84.10
2023-03-03T12:05:56.375Z,81.98
2023-03-03T12:08:44.055Z,82.00
2023-03-03T12:11:23.186Z,82.41
2023-03-03T12:13:57.844Z,81.86
2023-03-03T12:16:40.757Z,82.49
2023-03-03T12:19:20.636Z,82.86
2023-03-03T12:22:06.457Z,83.24
2023-03-03T12:24:46.733Z,82.41
2023-03-03T12:27:24.043Z,83.03
2023-03-03T12:30:06.670Z,82.02
2023-03-03T12:32:57.034Z,82.10
2023-03-03T12:35:36.562Z,80.70
2023-03-03T12:38:14.819Z,80.37
2023-03-03T12:40:53.865Z,80.61
2023-03-03T12:43:36.739Z,81.38
2023-03-03T12:46:12.436Z,82.06
2023-03-03T12:48:43.687Z,83.88
2023-03-03T12:51:23.071Z,82.40
2023-03-03T12:54:12.360Z,82.38
2023-03-03T12:56:45.919Z,82.34
2023-03-03T12:59:20.848Z,82.67
2023-03-03T13:02:03.864Z,83.46
2023-03-03T13:04:38.787Z,83.46
2023-03-03T13:07:16.271Z,82.87
2023-03-03T13:10:04.068Z,82.77
2023-03-03T13:12:41.920Z,83.56
2023-03-03T13:15:24.847Z,83.87
2023-03-03T13:18:04.782Z,84.22
2023-03-03T13:20:43.831Z,84.87
2023-03-03T13:23:20.452Z,85.59
2023-03-03T13:25:56.750Z,85.02
2023-03-03T13:28:32.773Z,84.47
2023-03-03T13:31:08.662Z,84.56
2023-03-03T13:33:37.922Z,84.86
2023-03-03T13:36:10.503Z,85.48
2023-03-03T13:38:43.844Z,84.97
2023-03-03T13:41:22.398Z,85.17
2023-03-03T13:43:56.196Z,85.26
2023-03-03T13:46:38.971Z,85.88
2023-03-03T13:49:37.065Z,85.68
2023-03-03T13:52:09.192Z,85.19
2023-03-03T13:54:49.384Z,85.37
2023-03-03T13:57:31.593Z,84.47
2023-03-03T14:00:13.679Z,84.71
2023-03-03T14:02:55.660Z,84.04
2023-03-03T14:05:30.176Z,84.35
2023-03-03T14:08:01.147Z,83.58
2023-03-03T14:10:33.389Z,83.19
2023-03-03T14:13:07.616Z,83.42
2023-03-03T14:15:40.020Z,84.03
2023-03-03T14:18:23.120Z,84.18
2023-03-03T14:20:54.084Z,84.70
2023-03-03T14:23:28.841Z,85.05
2023-03-03T14:26:08.446Z,84.68
2023-03-03T14:28:44.228Z,84.80
2023-03-03T14:31:23.463Z,85.22
2023-03-03T14:34:03.263Z,85.58
2023-03-03T14:36:34.183Z,85.82
2023-03-03T14:39:02.682Z,85.81
2023-03-03T14:41:41.738Z,85.62
2023-03-03T14:44:29.757Z,86.29
2023-03-03T14:47:18.493Z,86.08
2023-03-03T14:49:46.941Z,85.81
2023-03-03T14:52:26.054Z,86.16
2023-03-03T14:54:56.435Z,86.40
2023-03-03T14:57:46.518Z,86.53
2023-03-03T15:00:36.343Z,86.68
2023-03-03T15:03:23.316Z,85.54
2023-03-03T15:05:52.812Z,85.93
2023-03-03T15:08:31.961Z,86.81
2023-03-03T15:11:15.015Z,87.58
2023-03-03T15:13:43.364Z,88.08
2023-03-03T15:16:19.598Z,88.03
2023-03-03T15:19:19.755Z,87.47
2023-03-03T15:22:00.881Z,87.72
2023-03-03T15:24:39.494Z,87.45
2023-03-03T15:27:15.552Z,87.32
2023-03-03T15:29:57.028Z,87.75
2023-03-03T15:32:31.312Z,87.68
2023-03-03T15:35:13.913Z,87.66
2023-03-03T15:37:50.810Z,87.77
2023-03-03T15:40:28.549Z,87.72
2023-03-03T15:43:05.773Z,87.72
2023-03-03T15:45:40.630Z,87.72
2023-03-03T15:48:35.633Z,87.78
2023-03-03T15:51:10.471Z,87.46
2023-03-03T15:54:02.373Z,88.15
2023-03-03T15:56:38.774Z,87.95
2023-03-03T15:59:42.347Z,88.69
2023-03-03T16:02:17.954Z,89.46
2023-03-03T16:04:56.148Z,89.50
2023-03-03T16:07:37.337Z,90.14
2023-03-03T16:10:20.912Z,89.98
2023-03-03T16:13:00.409Z,89.94
2023-03-03T16:15:46.102Z,89.84
2023-03-03T16:18:24.308Z,90.00
2023-03-03T16:21:04.977Z,90.28
2023-03-03T16:23:47.427Z,90.17
2023-03-03T16:26:28.711Z,90.45
2023-03-03T16:29:09.624Z,90.54
2023-03-03T16:31:43.028Z,91.00
2023-03-03T16:34:18.610Z,91.03
2023-03-03T16:36:58.468Z,90.87
2023-03-03T16:39:37.169Z,90.57
2023-03-03T16:42:13.813Z,90.14
2023-03-03T16:44:51.042Z,90.55
2023-03-03T16:47:33.704Z,90.84
2023-03-03T16:50:15.851Z,91.10
2023-03-03T16:52:49.820Z,91.28
2023-03-03T16:55:22.944Z,91.82
2023-03-03T16:58:04.920Z,92.13
2023-03-03T17:00:40.038Z,92.18
2023-03-03T17:03:25.324Z,92.21
2023-03-03T17:05:58.063Z,92.10
2023-03-03T17:08:57.924Z,92.12
2023-03-03T17:11:35.083Z,92.06
2023-03-03T17:14:28.061Z,92.08
2023-03-03T17:17:01.509Z,92.06
2023-03-03T17:19:44.052Z,92.32
2023-03-03T17:22:19.351Z,92.50
2023-03-03T17:25:04.042Z,92.41
2023-03-03T17:27:47.510Z,92.30
2023-03-03T17:30:22.407Z,92.69
2023-03-03T17:33:23.219Z,92.89
2023-03-03T17:36:05.749Z,92.72
2023-03-03T17:38:49.322Z,92.75
2023-03-03T17:41:26.888Z,93.05
2023-03-03T17:44:03.397Z,93.19
2023-03-03T17:46:37.125Z,92.97
2023-03-03T17:49:30.094Z,93.24
2023-03-03T17:52:13.268Z,93.22
2023-03-03T17:55:10.637Z,93.37
2023-03-03T17:57:53.598Z,93.20
2023-03-03T18:00:37.137Z,93.17
2023-03-03T18:03:40.828Z,93.11
2023-03-03T18:06:38.072Z,93.12
2023-03-03T18:09:22.318Z,93.27
2023-03-03T18:12:05.290Z,93.55
2023-03-03T18:15:04.263Z,93.51
2023-03-03T18:17:37.615Z,93.42
2023-03-03T18:20:36.451Z,93.44
2023-03-03T18:23:43.605Z,93.48
2023-03-03T18:26:34.540Z,93.44
2023-03-03T18:29:22.401Z,93.44
2023-03-03T18:32:04.606Z,93.46
2023-03-03T18:34:38.966Z,93.49
2023-03-03T18:37:12.804Z,93.57
2023-03-03T18:39:46.727Z,93.60
2023-03-03T18:42:37.709Z,93.75
2023-03-03T18:45:51.483Z,93.80
2023-03-03T18:48:49.414Z,93.85
2023-03-03T18:52:14.052Z,93.66
2023-03-03T18:54:42.251Z,93.73
2023-03-03T18:57:20.628Z,93.78
2023-03-03T19:00:17.306Z,93.76
2023-03-03T19:02:55.308Z,93.53
2023-03-03T19:05:29.021Z,93.66
2023-03-03T19:08:02.908Z,93.80
2023-03-03T19:10:50.968Z,93.54
2023-03-03T19:13:44.692Z,93.72
2023-03-03T19:16:30.633Z,93.60
2023-03-03T19:19:02.188Z,93.89
2023-03-03T19:21:34.474Z,93.83
2023-03-03T19:24:04.558Z,93.90
2023-03-03T19:26:51.741Z,93.60
2023-03-03T19:29:34.758Z,93.65
2023-03-03T19:32:19.933Z,93.52
2023-03-03T19:34:56.001Z,93.33
2023-03-03T19:37:40.565Z,93.49
2023-03-03T19:40:21.045Z,93.29
2023-03-03T19:43:00.593Z,93.50
2023-03-03T19:45:49.430Z,93.39
2023-03-03T19:48:26.979Z,93.70
2023-03-03T19:51:03.264Z,93.49
2023-03-03T19:53:40.383Z,93.43
2023-03-03T19:56:29.841Z,93.59
2023-03-03T19:59:09.607Z,93.61
2023-03-03T20:01:49.550Z,93.57
2023-03-03T20:04:38.337Z,93.62
2023-03-03T20:07:22.786Z,93.79
2023-03-03T20:10:01.331Z,93.88
2023-03-03T20:12:54.490Z,93.96
2023-03-03T20:15:29.526Z,94.19
2023-03-03T20:18:22.332Z,93.94
2023-03-03T20:21:00.938Z,93.87
2023-03-03T20:23:36.819Z,93.84
2023-03-03T20:26:15.484Z,93.79
2023-03-03T20:29:22.795Z,93.77
2023-03-03T20:31:57.946Z,93.82
2023-03-03T20:34:37.652Z,93.93
2023-03-03T20:37:10.039Z,93.77
2023-03-03T20:39:58.956Z,94.08
2023-03-03T20:42:42.265Z,94.03
2023-03-03T20:45:23.366Z,94.23
2023-03-03T20:48:01.424Z,94.47
2023-03-03T20:50:37.584Z,94.52
2023-03-03T20:53:18.182Z,94.45
2023-03-03T20:55:56.104Z,94.38
2023-03-03T20:58:35.419Z,94.42
2023-03-03T21:01:07.946Z,94.32
2023-03-03T21:03:38.502Z,94.52
2023-03-03T21:06:09.413Z,94.57
2023-03-03T21:08:53.331Z,94.67
2023-03-03T21:11:24.082Z,94.47
2023-03-03T21:13:54.952Z,94.40
2023-03-03T21:16:36.038Z,94.52
2023-03-03T21:19:06.431Z,94.45
2023-03-03T21:21:36.122Z,94.72
2023-03-03T21:24:04.850Z,94.76
2023-03-03T21:26:54.470Z,94.85
2023-03-03T21:29:27.822Z,95.05
2023-03-03T21:31:57.809Z,94.94
2023-03-03T21:34:30.090Z,95.12
2023-03-03T21:37:00.216Z,94.76
2023-03-03T21:39:31.109Z,95.00
2023-03-03T21:42:03.009Z,95.13
2023-03-03T21:44:44.281Z,94.98
2023-03-03T21:47:15.498Z,95.13
2023-03-03T21:49:44.559Z,95.06
2023-03-03T21:52:16.611Z,94.91
2023-03-03T21:54:45.291Z,95.07
2023-03-03T21:57:14.169Z,95.05
2023-03-03T21:59:43.782Z,94.99
2023-03-03T22:02:11.915Z,95.17
2023-03-03T22:04:41.249Z,95.11
2023-03-03T22:07:09.886Z,95.17
2023-03-03T22:09:39.341Z,95.31
2023-03-03T22:12:08.628Z,95.06
2023-03-03T22:14:36.873Z,95.30
2023-03-03T22:17:06.296Z,95.22
2023-03-03T22:19:34.909Z,95.12
2023-03-03T22:22:03.349Z,95.13
2023-03-03T22:24:32.404Z,94.91
2023-03-03T22:27:01.030Z,94.95
2023-03-03T22:29:29.046Z,94.84
2023-03-03T22:31:57.300Z,94.77
2023-03-03T22:34:27.225Z,94.69
2023-03-03T22:36:55.468Z,94.43
2023-03-03T22:39:23.648Z,94.60
2023-03-03T22:41:51.883Z,94.66
2023-03-03T22:44:20.378Z,94.42
2023-03-03T22:46:48.653Z,94.55
2023-03-03T22:49:17.072Z,94.32
2023-03-03T22:51:46.566Z,94.18
2023-03-03T22:54:14.681Z,94.36
2023-03-03T22:56:42.854Z,94.18
2023-03-03T22:59:11.137Z,94.08
2023-03-03T23:01:39.334Z,94.09
2023-03-03T23:04:07.661Z,93.89
2023-03-03T23:06:36.291Z,93.99
2023-03-03T23:09:06.070Z,94.05
2023-03-03T23:11:35.002Z,93.89
2023-03-03T23:14:03.174Z,94.07
2023-03-03T23:16:31.360Z,93.92
2023-03-03T23:18:59.502Z,94.00
2023-03-03T23:21:28.041Z,94.10
2023-03-03T23:23:56.473Z,94.00
2023-03-03T23:26:26.223Z,93.93
2023-03-03T23:28:54.296Z,93.91
2023-03-03T23:31:22.385Z,93.90
2023-03-03T23:33:50.385Z,93.95
2023-03-03T23:36:19.234Z,94.03
2023-03-03T23:38:47.532Z,94.06
2023-03-03T23:41:15.881Z,94.02
2023-03-03T23:43:45.404Z,93.96
2023-03-03T23:46:13.421Z,93.79
2023-03-03T23:48:41.825Z,93.88
2023-03-03T23:51:09.887Z,93.76
2023-03-03T23:53:37.932Z,94.05
2023-03-03T23:56:06.813Z,93.71
2023-03-03T23:58:35.300Z,93.61
